sensor_id;sensor_type;location;lat;lon;timestamp;pressure;altitude;pressure_sealevel;temperature
15709;BMP180;7954;51.914;8.420;2022-11-25T00:01:23;100041.16;;;11.42
15709;BMP180;7954;51.914;8.420;2022-11-25T00:03:54;100040.69;;;11.39
15709;BMP180;7954;51.914;8.420;2022-11-25T00:06:23;100039.75;;;11.39
15709;BMP180;7954;51.914;8.420;2022-11-25T00:08:54;100045.50;;;11.38
15709;BMP180;7954;51.914;8.420;2022-11-25T00:11:25;100037.22;;;11.39
15709;BMP180;7954;51.914;8.420;2022-11-25T00:13:55;100038.84;;;11.38
15709;BMP180;7954;51.914;8.420;2022-11-25T00:16:24;100015.63;;;11.35
15709;BMP180;7954;51.914;8.420;2022-11-25T00:18:56;100019.31;;;11.37
15709;BMP180;7954;51.914;8.420;2022-11-25T00:21:26;100009.19;;;11.37
15709;BMP180;7954;51.914;8.420;2022-11-25T00:23:57;100001.38;;;11.36
15709;BMP180;7954;51.914;8.420;2022-11-25T00:26:27;100008.97;;;11.36
15709;BMP180;7954;51.914;8.420;2022-11-25T00:29:02;100010.13;;;11.38
15709;BMP180;7954;51.914;8.420;2022-11-25T00:31:32;100002.28;;;11.36
15709;BMP180;7954;51.914;8.420;2022-11-25T00:34:01;100006.66;;;11.37
15709;BMP180;7954;51.914;8.420;2022-11-25T00:36:31;100009.19;;;11.37
15709;BMP180;7954;51.914;8.420;2022-11-25T00:39:02;100001.59;;;11.37
15709;BMP180;7954;51.914;8.420;2022-11-25T00:41:30;100001.84;;;11.39
15709;BMP180;7954;51.914;8.420;2022-11-25T00:44:18;99994.03;;;11.37
15709;BMP180;7954;51.914;8.420;2022-11-25T00:47:08;99994.97;;;11.38
15709;BMP180;7954;51.914;8.420;2022-11-25T00:49:37;99988.06;;;11.37
15709;BMP180;7954;51.914;8.420;2022-11-25T00:52:06;99998.19;;;11.37
15709;BMP180;7954;51.914;8.420;2022-11-25T00:54:34;99992.00;;;11.40
15709;BMP180;7954;51.914;8.420;2022-11-25T00:57:03;99993.13;;;11.42
15709;BMP180;7954;51.914;8.420;2022-11-25T00:59:32;99994.53;;;11.46
15709;BMP180;7954;51.914;8.420;2022-11-25T01:02:01;99998.22;;;11.48
15709;BMP180;7954;51.914;8.420;2022-11-25T01:04:29;99992.75;;;11.50
15709;BMP180;7954;51.914;8.420;2022-11-25T01:06:57;99976.16;;;11.47
15709;BMP180;7954;51.914;8.420;2022-11-25T01:09:26;99980.75;;;11.49
15709;BMP180;7954;51.914;8.420;2022-11-25T01:11:54;99981.25;;;11.52
15709;BMP180;7954;51.914;8.420;2022-11-25T01:14:22;99981.66;;;11.50
15709;BMP180;7954;51.914;8.420;2022-11-25T01:16:52;99978.00;;;11.48
15709;BMP180;7954;51.914;8.420;2022-11-25T01:19:20;99980.13;;;11.50
15709;BMP180;7954;51.914;8.420;2022-11-25T01:21:49;99982.66;;;11.50
15709;BMP180;7954;51.914;8.420;2022-11-25T01:24:17;99975.06;;;11.50
15709;BMP180;7954;51.914;8.420;2022-11-25T01:26:46;99978.91;;;11.48
15709;BMP180;7954;51.914;8.420;2022-11-25T01:29:16;99984.88;;;11.49
15709;BMP180;7954;51.914;8.420;2022-11-25T01:31:45;99988.59;;;11.51
15709;BMP180;7954;51.914;8.420;2022-11-25T01:34:17;99984.72;;;11.53
15709;BMP180;7954;51.914;8.420;2022-11-25T01:36:49;99986.31;;;11.52
15709;BMP180;7954;51.914;8.420;2022-11-25T01:39:18;99980.56;;;11.53
15709;BMP180;7954;51.914;8.420;2022-11-25T01:41:53;99978.50;;;11.51
15709;BMP180;7954;51.914;8.420;2022-11-25T01:44:22;99987.00;;;11.51
15709;BMP180;7954;51.914;8.420;2022-11-25T01:47:00;99984.94;;;11.54
15709;BMP180;7954;51.914;8.420;2022-11-25T01:49:35;99981.28;;;11.57
15709;BMP180;7954;51.914;8.420;2022-11-25T01:52:12;99975.78;;;11.60
15709;BMP180;7954;51.914;8.420;2022-11-25T01:54:47;99974.88;;;11.65
15709;BMP180;7954;51.914;8.420;2022-11-25T01:57:20;99975.78;;;11.71
15709;BMP180;7954;51.914;8.420;2022-11-25T01:59:51;99972.13;;;11.74
15709;BMP180;7954;51.914;8.420;2022-11-25T02:02:20;99969.63;;;11.80
15709;BMP180;7954;51.914;8.420;2022-11-25T02:04:51;99969.19;;;11.82
15709;BMP180;7954;51.914;8.420;2022-11-25T02:07:28;99966.41;;;11.86
15709;BMP180;7954;51.914;8.420;2022-11-25T02:09:59;99958.38;;;11.89
15709;BMP180;7954;51.914;8.420;2022-11-25T02:12:29;99959.53;;;11.96
15709;BMP180;7954;51.914;8.420;2022-11-25T02:14:58;99960.22;;;12.01
15709;BMP180;7954;51.914;8.420;2022-11-25T02:17:27;99947.81;;;12.08
15709;BMP180;7954;51.914;8.420;2022-11-25T02:20:03;99955.16;;;12.12
15709;BMP180;7954;51.914;8.420;2022-11-25T02:22:42;99946.88;;;12.18
15709;BMP180;7954;51.914;8.420;2022-11-25T02:25:18;99950.56;;;12.25
15709;BMP180;7954;51.914;8.420;2022-11-25T02:27:50;99951.72;;;12.27
15709;BMP180;7954;51.914;8.420;2022-11-25T02:30:21;99958.16;;;12.31
15709;BMP180;7954;51.914;8.420;2022-11-25T02:32:49;99958.16;;;12.36
15709;BMP180;7954;51.914;8.420;2022-11-25T02:35:23;99954.25;;;12.38
15709;BMP180;7954;51.914;8.420;2022-11-25T02:37:54;99953.09;;;12.42
15709;BMP180;7954;51.914;8.420;2022-11-25T02:40:26;99959.53;;;12.45
15709;BMP180;7954;51.914;8.420;2022-11-25T02:42:57;99948.94;;;12.48
15709;BMP180;7954;51.914;8.420;2022-11-25T02:45:36;99940.41;;;12.53
15709;BMP180;7954;51.914;8.420;2022-11-25T02:48:06;99946.63;;;12.55
15709;BMP180;7954;51.914;8.420;2022-11-25T02:50:34;99942.94;;;12.53
15709;BMP180;7954;51.914;8.420;2022-11-25T02:53:03;99940.66;;;12.54
15709;BMP180;7954;51.914;8.420;2022-11-25T02:55:32;99939.94;;;12.55
15709;BMP180;7954;51.914;8.420;2022-11-25T02:58:02;99943.63;;;12.57
15709;BMP180;7954;51.914;8.420;2022-11-25T03:00:30;99949.16;;;12.60
15709;BMP180;7954;51.914;8.420;2022-11-25T03:02:59;99938.34;;;12.61
15709;BMP180;7954;51.914;8.420;2022-11-25T03:05:27;99944.06;;;12.60
15709;BMP180;7954;51.914;8.420;2022-11-25T03:07:55;99933.28;;;12.61
15709;BMP180;7954;51.914;8.420;2022-11-25T03:10:23;99937.22;;;12.59
15709;BMP180;7954;51.914;8.420;2022-11-25T03:12:53;99925.22;;;12.58
15709;BMP180;7954;51.914;8.420;2022-11-25T03:15:21;99938.34;;;12.61
15709;BMP180;7954;51.914;8.420;2022-11-25T03:17:49;99930.50;;;12.65
15709;BMP180;7954;51.914;8.420;2022-11-25T03:20:18;99931.22;;;12.64
15709;BMP180;7954;51.914;8.420;2022-11-25T03:22:46;99930.50;;;12.65
15709;BMP180;7954;51.914;8.420;2022-11-25T03:25:14;99935.13;;;12.62
15709;BMP180;7954;51.914;8.420;2022-11-25T03:27:43;99931.91;;;12.63
15709;BMP180;7954;51.914;8.420;2022-11-25T03:30:15;99931.91;;;12.63
15709;BMP180;7954;51.914;8.420;2022-11-25T03:32:43;99930.28;;;12.69
15709;BMP180;7954;51.914;8.420;2022-11-25T03:35:12;99928.44;;;12.68
15709;BMP180;7954;51.914;8.420;2022-11-25T03:37:41;99918.75;;;12.71
15709;BMP180;7954;51.914;8.420;2022-11-25T03:40:11;99925.66;;;12.72
15709;BMP180;7954;51.914;8.420;2022-11-25T03:42:40;99924.06;;;12.73
15709;BMP180;7954;51.914;8.420;2022-11-25T03:45:10;99920.13;;;12.75
15709;BMP180;7954;51.914;8.420;2022-11-25T03:47:41;99910.91;;;12.81
15709;BMP180;7954;51.914;8.420;2022-11-25T03:50:12;99912.53;;;12.80
15709;BMP180;7954;51.914;8.420;2022-11-25T03:52:41;99917.34;;;12.84
15709;BMP180;7954;51.914;8.420;2022-11-25T03:55:09;99918.75;;;12.87
15709;BMP180;7954;51.914;8.420;2022-11-25T03:57:39;99908.16;;;12.90
15709;BMP180;7954;51.914;8.420;2022-11-25T04:00:08;99905.38;;;12.94
15709;BMP180;7954;51.914;8.420;2022-11-25T04:02:37;99900.75;;;12.97
15709;BMP180;7954;51.914;8.420;2022-11-25T04:05:07;99912.03;;;12.99
15709;BMP180;7954;51.914;8.420;2022-11-25T04:07:35;99907.63;;;13.03
15709;BMP180;7954;51.914;8.420;2022-11-25T04:10:04;99900.94;;;13.04
15709;BMP180;7954;51.914;8.420;2022-11-25T04:12:33;99897.00;;;13.06
15709;BMP180;7954;51.914;8.420;2022-11-25T04:15:16;99902.06;;;13.06
15709;BMP180;7954;51.914;8.420;2022-11-25T04:17:44;99901.38;;;13.07
15709;BMP180;7954;51.914;8.420;2022-11-25T04:20:14;99909.47;;;13.10
15709;BMP180;7954;51.914;8.420;2022-11-25T04:22:43;99903.19;;;13.13
15709;BMP180;7954;51.914;8.420;2022-11-25T04:25:12;99902.50;;;13.14
15709;BMP180;7954;51.914;8.420;2022-11-25T04:27:40;99918.63;;;13.20
15709;BMP180;7954;51.914;8.420;2022-11-25T04:30:08;99912.38;;;13.24
15709;BMP180;7954;51.914;8.420;2022-11-25T04:32:37;99904.09;;;13.25
15709;BMP180;7954;51.914;8.420;2022-11-25T04:35:05;99909.59;;;13.28
15709;BMP180;7954;51.914;8.420;2022-11-25T04:37:35;99908.91;;;13.29
15709;BMP180;7954;51.914;8.420;2022-11-25T04:40:04;99909.59;;;13.28
15709;BMP180;7954;51.914;8.420;2022-11-25T04:42:35;99912.09;;;13.33
15709;BMP180;7954;51.914;8.420;2022-11-25T04:45:07;99931.22;;;13.37
15709;BMP180;7954;51.914;8.420;2022-11-25T04:47:50;99941.09;;;13.41
15709;BMP180;7954;51.914;8.420;2022-11-25T04:50:21;99936.28;;;13.42
15709;BMP180;7954;51.914;8.420;2022-11-25T04:52:50;99931.41;;;13.44
15709;BMP180;7954;51.914;8.420;2022-11-25T04:55:19;99932.78;;;13.47
15709;BMP180;7954;51.914;8.420;2022-11-25T04:57:48;99928.41;;;13.46
15709;BMP180;7954;51.914;8.420;2022-11-25T05:00:18;99939.66;;;13.48
15709;BMP180;7954;51.914;8.420;2022-11-25T05:02:46;99944.94;;;13.55
15709;BMP180;7954;51.914;8.420;2022-11-25T05:05:14;99937.56;;;13.56
15709;BMP180;7954;51.914;8.420;2022-11-25T05:07:43;99948.16;;;13.59
15709;BMP180;7954;51.914;8.420;2022-11-25T05:10:13;99950.22;;;13.62
15709;BMP180;7954;51.914;8.420;2022-11-25T05:12:41;99956.63;;;13.65
15709;BMP180;7954;51.914;8.420;2022-11-25T05:15:09;99957.38;;;13.64
15709;BMP180;7954;51.914;8.420;2022-11-25T05:17:39;99947.66;;;13.67
15709;BMP180;7954;51.914;8.420;2022-11-25T05:20:09;99946.47;;;13.71
15709;BMP180;7954;51.914;8.420;2022-11-25T05:22:37;99951.28;;;13.75
15709;BMP180;7954;51.914;8.420;2022-11-25T05:25:06;99945.31;;;13.74
15709;BMP180;7954;51.914;8.420;2022-11-25T05:27:36;99944.59;;;13.75
15709;BMP180;7954;51.914;8.420;2022-11-25T05:30:07;99946.44;;;13.76
15709;BMP180;7954;51.914;8.420;2022-11-25T05:32:35;99943.00;;;13.76
15709;BMP180;7954;51.914;8.420;2022-11-25T05:35:03;99945.06;;;13.78
15709;BMP180;7954;51.914;8.420;2022-11-25T05:37:31;99956.09;;;13.79
15709;BMP180;7954;51.914;8.420;2022-11-25T05:39:59;99951.50;;;13.82
15709;BMP180;7954;51.914;8.420;2022-11-25T05:42:27;99956.56;;;13.82
15709;BMP180;7954;51.914;8.420;2022-11-25T05:44:57;99950.06;;;13.84
15709;BMP180;7954;51.914;8.420;2022-11-25T05:47:28;99955.38;;;13.85
15709;BMP180;7954;51.914;8.420;2022-11-25T05:49:56;99959.06;;;13.87
15709;BMP180;7954;51.914;8.420;2022-11-25T05:52:24;99951.88;;;13.90
15709;BMP180;7954;51.914;8.420;2022-11-25T05:54:52;99953.94;;;13.93
15709;BMP180;7954;51.914;8.420;2022-11-25T05:57:23;99958.78;;;13.97
15709;BMP180;7954;51.914;8.420;2022-11-25T05:59:51;99957.34;;;13.99
15709;BMP180;7954;51.914;8.420;2022-11-25T06:02:20;99953.22;;;13.99
15709;BMP180;7954;51.914;8.420;2022-11-25T06:04:49;99956.88;;;14.01
15709;BMP180;7954;51.914;8.420;2022-11-25T06:07:17;99959.22;;;14.00
15709;BMP180;7954;51.914;8.420;2022-11-25T06:09:45;99961.94;;;14.01
15709;BMP180;7954;51.914;8.420;2022-11-25T06:12:13;99968.88;;;14.02
15709;BMP180;7954;51.914;8.420;2022-11-25T06:14:43;99970.72;;;14.03
15709;BMP180;7954;51.914;8.420;2022-11-25T06:17:12;99970.03;;;14.04
15709;BMP180;7954;51.914;8.420;2022-11-25T06:19:42;99976.91;;;14.05
15709;BMP180;7954;51.914;8.420;2022-11-25T06:22:10;99977.38;;;14.08
15709;BMP180;7954;51.914;8.420;2022-11-25T06:24:38;99973.00;;;14.07
15709;BMP180;7954;51.914;8.420;2022-11-25T06:27:06;99978.06;;;14.07
15709;BMP180;7954;51.914;8.420;2022-11-25T06:29:34;99983.63;;;14.10
15709;BMP180;7954;51.914;8.420;2022-11-25T06:32:02;99980.59;;;14.13
15709;BMP180;7954;51.914;8.420;2022-11-25T06:34:30;99982.66;;;14.15
15709;BMP180;7954;51.914;8.420;2022-11-25T06:37:00;99979.69;;;14.12
15709;BMP180;7954;51.914;8.420;2022-11-25T06:39:29;99985.91;;;14.14
15709;BMP180;7954;51.914;8.420;2022-11-25T06:41:57;99987.03;;;14.16
15709;BMP180;7954;51.914;8.420;2022-11-25T06:44:25;99992.13;;;14.16
15709;BMP180;7954;51.914;8.420;2022-11-25T06:46:53;99991.84;;;14.20
15709;BMP180;7954;51.914;8.420;2022-11-25T06:49:22;99995.53;;;14.22
15709;BMP180;7954;51.914;8.420;2022-11-25T06:51:50;99998.28;;;14.23
15709;BMP180;7954;51.914;8.420;2022-11-25T06:54:19;99989.50;;;14.27
15709;BMP180;7954;51.914;8.420;2022-11-25T06:56:48;99996.44;;;14.28
15709;BMP180;7954;51.914;8.420;2022-11-25T06:59:19;100005.41;;;14.31
15709;BMP180;7954;51.914;8.420;2022-11-25T07:01:47;100002.81;;;14.37
15709;BMP180;7954;51.914;8.420;2022-11-25T07:04:15;99997.19;;;14.45
15709;BMP180;7954;51.914;8.420;2022-11-25T07:06:43;100003.13;;;14.56
15709;BMP180;7954;51.914;8.420;2022-11-25T07:09:11;100004.47;;;14.60
15709;BMP180;7954;51.914;8.420;2022-11-25T07:11:41;99997.28;;;14.63
15709;BMP180;7954;51.914;8.420;2022-11-25T07:14:11;100003.97;;;14.62
15709;BMP180;7954;51.914;8.420;2022-11-25T07:16:41;100006.50;;;14.62
15709;BMP180;7954;51.914;8.420;2022-11-25T07:19:11;100009.31;;;14.64
15709;BMP180;7954;51.914;8.420;2022-11-25T07:21:41;100009.50;;;14.65
15709;BMP180;7954;51.914;8.420;2022-11-25T07:24:12;100017.34;;;14.67
15709;BMP180;7954;51.914;8.420;2022-11-25T07:26:43;100028.91;;;14.65
15709;BMP180;7954;51.914;8.420;2022-11-25T07:29:13;100027.78;;;14.63
15709;BMP180;7954;51.914;8.420;2022-11-25T07:32:01;100024.97;;;14.67
15709;BMP180;7954;51.914;8.420;2022-11-25T07:34:35;100033.97;;;14.65
15709;BMP180;7954;51.914;8.420;2022-11-25T07:37:05;100032.59;;;14.67
15709;BMP180;7954;51.914;8.420;2022-11-25T07:39:33;100033.97;;;14.70
15709;BMP180;7954;51.914;8.420;2022-11-25T07:42:04;100042.69;;;14.72
15709;BMP180;7954;51.914;8.420;2022-11-25T07:44:33;100042.94;;;14.74
15709;BMP180;7954;51.914;8.420;2022-11-25T07:47:00;100053.53;;;14.77
15709;BMP180;7954;51.914;8.420;2022-11-25T07:49:28;100052.13;;;14.78
15709;BMP180;7954;51.914;8.420;2022-11-25T07:51:58;100057.44;;;14.80
15709;BMP180;7954;51.914;8.420;2022-11-25T07:54:27;100062.47;;;14.85
15709;BMP180;7954;51.914;8.420;2022-11-25T07:56:56;100063.59;;;14.87
15709;BMP180;7954;51.914;8.420;2022-11-25T07:59:25;100069.38;;;14.86
15709;BMP180;7954;51.914;8.420;2022-11-25T08:01:54;100069.56;;;14.93
15709;BMP180;7954;51.914;8.420;2022-11-25T08:04:23;100075.56;;;14.94
15709;BMP180;7954;51.914;8.420;2022-11-25T08:06:52;100080.66;;;14.94
15709;BMP180;7954;51.914;8.420;2022-11-25T08:09:21;100094.75;;;14.92
15709;BMP180;7954;51.914;8.420;2022-11-25T08:11:50;100093.84;;;14.91
15709;BMP180;7954;51.914;8.420;2022-11-25T08:14:18;100084.56;;;14.92
15709;BMP180;7954;51.914;8.420;2022-11-25T08:16:48;100092.44;;;14.93
15709;BMP180;7954;51.914;8.420;2022-11-25T08:19:18;100103.75;;;14.95
15709;BMP180;7954;51.914;8.420;2022-11-25T08:21:51;100095.13;;;15.00
15709;BMP180;7954;51.914;8.420;2022-11-25T08:24:20;100099.25;;;15.05
15709;BMP180;7954;51.914;8.420;2022-11-25T08:26:48;100108.03;;;15.07
15709;BMP180;7954;51.914;8.420;2022-11-25T08:29:18;100106.19;;;15.06
15709;BMP180;7954;51.914;8.420;2022-11-25T08:31:46;100105.63;;;15.14
15709;BMP180;7954;51.914;8.420;2022-11-25T08:34:17;100106.78;;;15.16
15709;BMP180;7954;51.914;8.420;2022-11-25T08:36:46;100108.44;;;15.16
15709;BMP180;7954;51.914;8.420;2022-11-25T08:39:16;100110.78;;;15.09
15709;BMP180;7954;51.914;8.420;2022-11-25T08:42:05;100124.59;;;15.16
15709;BMP180;7954;51.914;8.420;2022-11-25T08:44:33;100128.25;;;15.24
15709;BMP180;7954;51.914;8.420;2022-11-25T08:47:01;100121.09;;;15.27
15709;BMP180;7954;51.914;8.420;2022-11-25T08:49:30;100119.88;;;15.30
15709;BMP180;7954;51.914;8.420;2022-11-25T08:52:07;100111.06;;;15.34
15709;BMP180;7954;51.914;8.420;2022-11-25T08:54:35;100123.97;;;15.35
15709;BMP180;7954;51.914;8.420;2022-11-25T08:57:04;100136.56;;;15.28
15709;BMP180;7954;51.914;8.420;2022-11-25T08:59:32;100130.03;;;15.30
15709;BMP180;7954;51.914;8.420;2022-11-25T09:02:01;100131.41;;;15.34
15709;BMP180;7954;51.914;8.420;2022-11-25T09:04:31;100133.91;;;15.39
15709;BMP180;7954;51.914;8.420;2022-11-25T09:06:59;100124.38;;;15.43
15709;BMP180;7954;51.914;8.420;2022-11-25T09:09:27;100143.94;;;15.50
15709;BMP180;7954;51.914;8.420;2022-11-25T09:11:55;100138.25;;;15.45
15709;BMP180;7954;51.914;8.420;2022-11-25T09:14:24;100143.75;;;15.48
15709;BMP180;7954;51.914;8.420;2022-11-25T09:16:53;100145.03;;;15.57
15709;BMP180;7954;51.914;8.420;2022-11-25T09:19:22;100152.19;;;15.60
15709;BMP180;7954;51.914;8.420;2022-11-25T09:21:52;100158.03;;;15.53
15709;BMP180;7954;51.914;8.420;2022-11-25T09:24:20;100154.72;;;15.60
15709;BMP180;7954;51.914;8.420;2022-11-25T09:26:48;100145.59;;;15.73
15709;BMP180;7954;51.914;8.420;2022-11-25T09:29:17;100142.06;;;15.78
15709;BMP180;7954;51.914;8.420;2022-11-25T09:31:45;100148.72;;;15.83
15709;BMP180;7954;51.914;8.420;2022-11-25T09:34:19;100155.78;;;15.91
15709;BMP180;7954;51.914;8.420;2022-11-25T09:36:49;100156.22;;;15.94
15709;BMP180;7954;51.914;8.420;2022-11-25T09:39:19;100165.19;;;15.97
15709;BMP180;7954;51.914;8.420;2022-11-25T09:41:55;100158.13;;;16.07
15709;BMP180;7954;51.914;8.420;2022-11-25T09:44:58;100164.28;;;16.14
15709;BMP180;7954;51.914;8.420;2022-11-25T09:47:52;100164.44;;;16.21
15709;BMP180;7954;51.914;8.420;2022-11-25T09:50:37;100165.59;;;16.23
15709;BMP180;7954;51.914;8.420;2022-11-25T09:53:17;100160.44;;;16.29
15709;BMP180;7954;51.914;8.420;2022-11-25T09:55:58;100167.63;;;16.26
15709;BMP180;7954;51.914;8.420;2022-11-25T09:58:31;100165.94;;;16.32
15709;BMP180;7954;51.914;8.420;2022-11-25T10:01:03;100174.94;;;16.35
15709;BMP180;7954;51.914;8.420;2022-11-25T10:03:38;100172.97;;;16.45
15709;BMP180;7954;51.914;8.420;2022-11-25T10:06:14;100166.56;;;16.54
15709;BMP180;7954;51.914;8.420;2022-11-25T10:08:44;100166.00;;;16.62
15709;BMP180;7954;51.914;8.420;2022-11-25T10:11:29;100172.88;;;16.69
15709;BMP180;7954;51.914;8.420;2022-11-25T10:14:02;100177.59;;;16.78
15709;BMP180;7954;51.914;8.420;2022-11-25T10:16:37;100172.63;;;16.85
15709;BMP180;7954;51.914;8.420;2022-11-25T10:19:23;100178.97;;;16.94
15709;BMP180;7954;51.914;8.420;2022-11-25T10:21:54;100176.16;;;16.98
15709;BMP180;7954;51.914;8.420;2022-11-25T10:24:23;100172.44;;;16.96
15709;BMP180;7954;51.914;8.420;2022-11-25T10:26:57;100190.44;;;17.03
15709;BMP180;7954;51.914;8.420;2022-11-25T10:29:29;100185.44;;;17.10
15709;BMP180;7954;51.914;8.420;2022-11-25T10:32:07;100188.84;;;17.16
15709;BMP180;7954;51.914;8.420;2022-11-25T10:34:41;100178.13;;;17.18
15709;BMP180;7954;51.914;8.420;2022-11-25T10:37:14;100177.63;;;17.21
15709;BMP180;7954;51.914;8.420;2022-11-25T10:39:45;100175.31;;;17.35
15709;BMP180;7954;51.914;8.420;2022-11-25T10:42:19;100184.44;;;17.45
15709;BMP180;7954;51.914;8.420;2022-11-25T10:44:48;100187.50;;;17.42
15709;BMP180;7954;51.914;8.420;2022-11-25T10:47:33;100189.13;;;17.42
15709;BMP180;7954;51.914;8.420;2022-11-25T10:50:14;100186.06;;;17.44
15709;BMP180;7954;51.914;8.420;2022-11-25T10:52:47;100189.31;;;17.43
15709;BMP180;7954;51.914;8.420;2022-11-25T10:55:18;100190.31;;;17.38
15709;BMP180;7954;51.914;8.420;2022-11-25T10:57:51;100194.22;;;17.42
15709;BMP180;7954;51.914;8.420;2022-11-25T11:00:29;100189.75;;;17.46
15709;BMP180;7954;51.914;8.420;2022-11-25T11:02:57;100201.81;;;17.47
15709;BMP180;7954;51.914;8.420;2022-11-25T11:05:28;100194.66;;;17.57
15709;BMP180;7954;51.914;8.420;2022-11-25T11:08:14;100206.00;;;17.72
15709;BMP180;7954;51.914;8.420;2022-11-25T11:10:47;100200.28;;;17.67
15709;BMP180;7954;51.914;8.420;2022-11-25T11:13:36;100199.28;;;17.72
15709;BMP180;7954;51.914;8.420;2022-11-25T11:16:20;100202.72;;;17.73
15709;BMP180;7954;51.914;8.420;2022-11-25T11:18:50;100206.81;;;17.65
15709;BMP180;7954;51.914;8.420;2022-11-25T11:21:24;100209.16;;;17.51
15709;BMP180;7954;51.914;8.420;2022-11-25T11:23:56;100209.66;;;17.49
15709;BMP180;7954;51.914;8.420;2022-11-25T11:26:27;100211.19;;;17.41
15709;BMP180;7954;51.914;8.420;2022-11-25T11:29:02;100217.31;;;17.49
15709;BMP180;7954;51.914;8.420;2022-11-25T11:31:37;100217.91;;;17.53
15709;BMP180;7954;51.914;8.420;2022-11-25T11:34:24;100218.16;;;17.55
15709;BMP180;7954;51.914;8.420;2022-11-25T11:37:16;100227.63;;;17.68
15709;BMP180;7954;51.914;8.420;2022-11-25T11:39:56;100225.50;;;17.71
15709;BMP180;7954;51.914;8.420;2022-11-25T11:42:34;100232.34;;;17.78
15709;BMP180;7954;51.914;8.420;2022-11-25T11:45:23;100222.34;;;17.92
15709;BMP180;7954;51.914;8.420;2022-11-25T11:48:09;100235.53;;;17.82
15709;BMP180;7954;51.914;8.420;2022-11-25T11:50:39;100240.22;;;17.79
15709;BMP180;7954;51.914;8.420;2022-11-25T11:53:13;100235.09;;;17.79
15709;BMP180;7954;51.914;8.420;2022-11-25T11:55:51;100236.66;;;17.84
15709;BMP180;7954;51.914;8.420;2022-11-25T11:58:48;100246.59;;;17.88
15709;BMP180;7954;51.914;8.420;2022-11-25T12:01:34;100243.53;;;18.03
15709;BMP180;7954;51.914;8.420;2022-11-25T12:04:14;100245.88;;;18.26
15709;BMP180;7954;51.914;8.420;2022-11-25T12:06:51;100237.94;;;18.18
15709;BMP180;7954;51.914;8.420;2022-11-25T12:09:21;100238.91;;;18.38
15709;BMP180;7954;51.914;8.420;2022-11-25T12:11:53;100244.28;;;18.46
15709;BMP180;7954;51.914;8.420;2022-11-25T12:14:30;100246.97;;;18.41
15709;BMP180;7954;51.914;8.420;2022-11-25T12:17:06;100251.97;;;18.34
15709;BMP180;7954;51.914;8.420;2022-11-25T12:19:38;100241.50;;;18.25
15709;BMP180;7954;51.914;8.420;2022-11-25T12:22:16;100252.72;;;18.33
15709;BMP180;7954;51.914;8.420;2022-11-25T12:24:49;100262.44;;;18.35
15709;BMP180;7954;51.914;8.420;2022-11-25T12:27:21;100251.91;;;18.27
15709;BMP180;7954;51.914;8.420;2022-11-25T12:29:54;100261.81;;;18.31
15709;BMP180;7954;51.914;8.420;2022-11-25T12:32:43;100257.09;;;18.34
15709;BMP180;7954;51.914;8.420;2022-11-25T12:35:19;100264.06;;;18.22
15709;BMP180;7954;51.914;8.420;2022-11-25T12:37:55;100266.91;;;18.06
15709;BMP180;7954;51.914;8.420;2022-11-25T12:40:29;100261.41;;;18.15
15709;BMP180;7954;51.914;8.420;2022-11-25T12:43:08;100254.47;;;18.71
15709;BMP180;7954;51.914;8.420;2022-11-25T12:45:41;100261.75;;;19.00
15709;BMP180;7954;51.914;8.420;2022-11-25T12:48:12;100262.78;;;19.07
15709;BMP180;7954;51.914;8.420;2022-11-25T12:50:51;100271.78;;;18.98
15709;BMP180;7954;51.914;8.420;2022-11-25T12:53:29;100276.88;;;18.98
15709;BMP180;7954;51.914;8.420;2022-11-25T12:56:00;100267.44;;;18.85
15709;BMP180;7954;51.914;8.420;2022-11-25T12:58:43;100281.50;;;19.01
15709;BMP180;7954;51.914;8.420;2022-11-25T13:01:50;100274.34;;;18.98
15709;BMP180;7954;51.914;8.420;2022-11-25T13:04:34;100280.44;;;18.86
15709;BMP180;7954;51.914;8.420;2022-11-25T13:07:28;100303.78;;;18.82
15709;BMP180;7954;51.914;8.420;2022-11-25T13:10:28;100299.81;;;18.60
15709;BMP180;7954;51.914;8.420;2022-11-25T13:13:11;100294.38;;;18.64
15709;BMP180;7954;51.914;8.420;2022-11-25T13:15:44;100300.66;;;18.53
15709;BMP180;7954;51.914;8.420;2022-11-25T13:18:16;100308.97;;;18.33
15709;BMP180;7954;51.914;8.420;2022-11-25T13:20:48;100307.13;;;18.44
15709;BMP180;7954;51.914;8.420;2022-11-25T13:23:28;100312.13;;;18.50
15709;BMP180;7954;51.914;8.420;2022-11-25T13:32:25;100309.72;;;18.76
15709;BMP180;7954;51.914;8.420;2022-11-25T13:38:34;100323.38;;;19.01
15709;BMP180;7954;51.914;8.420;2022-11-25T13:41:21;100331.91;;;18.95
15709;BMP180;7954;51.914;8.420;2022-11-25T13:43:57;100323.44;;;18.76
15709;BMP180;7954;51.914;8.420;2022-11-25T13:46:37;100334.88;;;18.85
15709;BMP180;7954;51.914;8.420;2022-11-25T13:49:29;100337.75;;;18.81
15709;BMP180;7954;51.914;8.420;2022-11-25T13:52:02;100331.50;;;18.79
15709;BMP180;7954;51.914;8.420;2022-11-25T13:54:35;100339.56;;;18.95
15709;BMP180;7954;51.914;8.420;2022-11-25T13:57:23;100332.94;;;18.90
15709;BMP180;7954;51.914;8.420;2022-11-25T13:59:54;100351.25;;;18.93
15709;BMP180;7954;51.914;8.420;2022-11-25T14:02:39;100348.25;;;19.02
15709;BMP180;7954;51.914;8.420;2022-11-25T14:05:40;100356.47;;;19.12
15709;BMP180;7954;51.914;8.420;2022-11-25T14:08:20;100357.66;;;19.21
15709;BMP180;7954;51.914;8.420;2022-11-25T14:11:00;100362.69;;;19.14
15709;BMP180;7954;51.914;8.420;2022-11-25T14:14:03;100367.00;;;19.08
15709;BMP180;7954;51.914;8.420;2022-11-25T14:16:45;100379.81;;;18.83
15709;BMP180;7954;51.914;8.420;2022-11-25T14:19:31;100372.13;;;18.83
15709;BMP180;7954;51.914;8.420;2022-11-25T14:22:35;100378.50;;;18.68
15709;BMP180;7954;51.914;8.420;2022-11-25T14:25:18;100383.84;;;18.57
15709;BMP180;7954;51.914;8.420;2022-11-25T14:27:53;100389.25;;;18.40
15709;BMP180;7954;51.914;8.420;2022-11-25T14:30:29;100384.75;;;18.32
15709;BMP180;7954;51.914;8.420;2022-11-25T14:33:00;100399.88;;;18.31
15709;BMP180;7954;51.914;8.420;2022-11-25T14:35:33;100393.03;;;18.37
15709;BMP180;7954;51.914;8.420;2022-11-25T14:38:13;100397.22;;;18.36
15709;BMP180;7954;51.914;8.420;2022-11-25T14:40:44;100399.69;;;18.29
15709;BMP180;7954;51.914;8.420;2022-11-25T14:43:23;100413.97;;;18.22
15709;BMP180;7954;51.914;8.420;2022-11-25T14:46:12;100416.34;;;18.33
15709;BMP180;7954;51.914;8.420;2022-11-25T14:48:42;100415.59;;;18.21
15709;BMP180;7954;51.914;8.420;2022-11-25T14:51:11;100412.56;;;18.06
15709;BMP180;7954;51.914;8.420;2022-11-25T14:53:42;100418.84;;;18.08
15709;BMP180;7954;51.914;8.420;2022-11-25T14:56:16;100429.56;;;18.05